createdAt,value
2023-05-13T00:00:06.942Z,33.20
2023-05-13T00:02:36.673Z,19.60
2023-05-13T00:05:03.709Z,23.85
2023-05-13T00:07:31.088Z,27.40
2023-05-13T00:09:58.020Z,25.52
2023-05-13T00:12:25.199Z,25.95
2023-05-13T00:14:52.306Z,32.67
2023-05-13T00:17:19.463Z,28.75
2023-05-13T00:19:46.503Z,38.50
2023-05-13T00:22:13.449Z,32.28
2023-05-13T00:24:40.773Z,23.85
2023-05-13T00:27:07.938Z,27.13
2023-05-13T00:29:35.070Z,29.70
2023-05-13T00:32:02.359Z,22.88
2023-05-13T00:34:29.578Z,29.60
2023-05-13T00:36:56.559Z,25.15
2023-05-13T00:39:24.001Z,31.65
2023-05-13T00:41:50.939Z,22.77
2023-05-13T00:44:18.238Z,24.55
2023-05-13T00:46:45.990Z,24.48
2023-05-13T00:49:13.113Z,32.05
2023-05-13T00:51:40.370Z,22.90
2023-05-13T00:54:07.441Z,23.13
2023-05-13T00:56:34.433Z,23.10
2023-05-13T00:59:01.380Z,26.73
2023-05-13T01:01:48.242Z,20.50
2023-05-13T01:04:31.443Z,16.80
2023-05-13T01:07:09.079Z,18.80
2023-05-13T01:10:06.285Z,19.88
2023-05-13T01:12:36.710Z,21.35
2023-05-13T01:15:11.162Z,24.50
2023-05-13T01:17:53.931Z,23.92
2023-05-13T01:20:23.320Z,15.38
2023-05-13T01:22:50.827Z,17.95
2023-05-13T01:25:18.204Z,23.58
2023-05-13T01:27:46.164Z,21.38
2023-05-13T01:30:15.384Z,16.25
2023-05-13T01:32:43.029Z,22.65
2023-05-13T01:35:11.657Z,18.65
2023-05-13T01:37:43.926Z,15.68
2023-05-13T01:40:24.260Z,28.88
2023-05-13T01:43:00.832Z,20.73
2023-05-13T01:45:30.836Z,21.55
2023-05-13T01:47:58.826Z,32.65
2023-05-13T01:50:31.304Z,21.27
2023-05-13T01:52:58.640Z,14.93
2023-05-13T01:55:26.232Z,18.52
2023-05-13T01:57:53.404Z,18.55
2023-05-13T02:00:20.716Z,16.00
2023-05-13T02:02:50.024Z,14.20
2023-05-13T02:05:17.265Z,13.38
2023-05-13T02:07:45.099Z,19.75
2023-05-13T02:10:12.892Z,15.50
2023-05-13T02:12:39.936Z,11.68
2023-05-13T02:15:07.701Z,17.98
2023-05-13T02:17:34.552Z,11.57
2023-05-13T02:20:04.059Z,16.23
2023-05-13T02:22:32.941Z,15.13
2023-05-13T02:25:00.069Z,17.58
2023-05-13T02:27:29.075Z,16.50
2023-05-13T02:29:56.285Z,21.83
2023-05-13T02:32:23.271Z,21.30
2023-05-13T02:34:50.344Z,18.65
2023-05-13T02:37:17.422Z,13.23
2023-05-13T02:39:54.297Z,18.55
2023-05-13T02:42:21.432Z,14.40
2023-05-13T02:44:48.798Z,18.42
2023-05-13T02:47:16.859Z,14.45
2023-05-13T02:49:43.958Z,11.57
2023-05-13T02:52:11.120Z,11.20
2023-05-13T02:54:38.249Z,11.82
2023-05-13T02:57:05.850Z,13.55
2023-05-13T02:59:32.932Z,10.45
2023-05-13T03:02:00.637Z,19.15
2023-05-13T03:04:27.731Z,22.40
2023-05-13T03:06:55.445Z,15.80
2023-05-13T03:09:22.575Z,25.27
2023-05-13T03:11:49.743Z,16.40
2023-05-13T03:14:16.681Z,16.17
2023-05-13T03:16:44.978Z,16.73
2023-05-13T03:19:14.205Z,17.58
2023-05-13T03:21:41.813Z,19.83
2023-05-13T03:24:12.186Z,16.33
2023-05-13T03:26:39.387Z,19.48
2023-05-13T03:29:07.116Z,17.08
2023-05-13T03:31:35.479Z,14.98
2023-05-13T03:34:04.803Z,13.40
2023-05-13T03:36:32.663Z,22.77
2023-05-13T03:39:00.064Z,16.42
2023-05-13T03:41:28.411Z,11.40
2023-05-13T03:43:58.018Z,13.18
2023-05-13T03:46:27.426Z,12.55
2023-05-13T03:48:56.043Z,13.90
2023-05-13T03:51:24.051Z,12.32
2023-05-13T03:53:52.469Z,12.88
2023-05-13T03:56:19.673Z,8.60
2023-05-13T03:58:46.742Z,12.68
2023-05-13T04:01:13.707Z,22.83
2023-05-13T04:03:42.968Z,10.07
2023-05-13T04:06:10.012Z,5.78
2023-05-13T04:08:38.116Z,10.55
2023-05-13T04:11:05.547Z,17.55
2023-05-13T04:13:36.402Z,9.10
2023-05-13T04:16:03.983Z,10.18
2023-05-13T04:18:31.803Z,12.10
2023-05-13T04:20:58.877Z,8.38
2023-05-13T04:23:26.022Z,9.43
2023-05-13T04:25:53.163Z,5.80
2023-05-13T04:28:20.959Z,10.23
2023-05-13T04:30:49.812Z,6.28
2023-05-13T04:33:17.306Z,9.23
2023-05-13T04:35:46.417Z,8.80
2023-05-13T04:38:26.375Z,14.80
2023-05-13T04:40:53.864Z,15.02
2023-05-13T04:43:28.140Z,9.40
2023-05-13T04:45:57.945Z,12.10
2023-05-13T04:48:28.095Z,14.77
2023-05-13T04:50:58.493Z,24.75
2023-05-13T04:53:26.252Z,11.82
2023-05-13T04:56:00.921Z,8.15
2023-05-13T04:58:29.912Z,10.88
2023-05-13T05:00:57.643Z,6.25
2023-05-13T05:03:25.151Z,11.10
2023-05-13T05:05:52.502Z,13.00
2023-05-13T05:08:22.488Z,7.70
2023-05-13T05:10:52.087Z,11.10
2023-05-13T05:13:20.046Z,7.28
2023-05-13T05:15:47.094Z,16.83
2023-05-13T05:18:15.190Z,12.75
2023-05-13T05:20:45.121Z,23.52
2023-05-13T05:23:17.573Z,16.17
2023-05-13T05:25:44.753Z,18.02
2023-05-13T05:28:12.534Z,11.43
2023-05-13T05:30:42.396Z,12.73
2023-05-13T05:33:25.518Z,6.22
2023-05-13T05:35:53.508Z,11.88
2023-05-13T05:38:25.294Z,11.93
2023-05-13T05:40:53.455Z,9.23
2023-05-13T05:43:20.795Z,9.88
2023-05-13T05:45:47.922Z,10.98
2023-05-13T05:48:17.727Z,9.57
2023-05-13T05:50:44.833Z,6.05
2023-05-13T05:53:15.995Z,5.75
2023-05-13T05:55:44.393Z,11.90
2023-05-13T05:58:14.926Z,11.63
2023-05-13T06:00:42.284Z,4.22
2023-05-13T06:03:09.532Z,9.55
2023-05-13T06:05:36.692Z,13.32
2023-05-13T06:08:03.829Z,6.93
2023-05-13T06:10:31.081Z,9.13
2023-05-13T06:12:58.438Z,9.68
2023-05-13T06:15:25.933Z,7.95
2023-05-13T06:17:53.034Z,8.93
2023-05-13T06:20:20.391Z,7.65
2023-05-13T06:22:48.306Z,9.90
2023-05-13T06:25:15.840Z,7.30
2023-05-13T06:27:42.814Z,6.22
2023-05-13T06:30:09.997Z,9.77
2023-05-13T06:32:53.526Z,11.40
2023-05-13T06:35:24.848Z,19.35
2023-05-13T06:37:51.915Z,6.47
2023-05-13T06:40:19.836Z,12.82
2023-05-13T06:42:47.714Z,11.43
2023-05-13T06:45:23.477Z,11.52
2023-05-13T06:47:51.579Z,8.20
2023-05-13T06:50:19.144Z,16.15
2023-05-13T06:52:47.268Z,7.80
2023-05-13T06:55:14.248Z,8.18
2023-05-13T06:57:43.308Z,9.40
2023-05-13T07:00:11.340Z,18.85
2023-05-13T07:02:38.317Z,44.58
2023-05-13T07:05:12.789Z,17.17
2023-05-13T07:07:41.434Z,15.27
2023-05-13T07:10:08.878Z,9.43
2023-05-13T07:12:35.943Z,13.13
2023-05-13T07:15:03.071Z,6.45
2023-05-13T07:17:32.810Z,8.88
2023-05-13T07:20:00.044Z,14.82
2023-05-13T07:22:28.651Z,12.38
2023-05-13T07:24:56.561Z,12.65
2023-05-13T07:27:23.846Z,9.13
2023-05-13T07:29:50.838Z,18.92
2023-05-13T07:32:18.183Z,17.13
2023-05-13T07:34:45.316Z,13.60
2023-05-13T07:37:12.356Z,23.98
2023-05-13T07:39:39.452Z,21.50
2023-05-13T07:42:08.833Z,9.67
2023-05-13T07:44:36.025Z,30.60
2023-05-13T07:47:03.051Z,48.25
2023-05-13T07:49:32.693Z,13.60
2023-05-13T07:51:59.767Z,21.90
2023-05-13T07:54:29.176Z,7.13
2023-05-13T07:56:56.204Z,14.63
2023-05-13T07:59:23.368Z,8.50
2023-05-13T08:01:50.735Z,19.80
2023-05-13T08:04:18.667Z,17.83
2023-05-13T08:06:45.852Z,17.08
2023-05-13T08:09:14.258Z,9.48
2023-05-13T08:11:41.355Z,8.25
2023-05-13T08:14:08.568Z,15.57
2023-05-13T08:16:36.665Z,20.88
2023-05-13T08:19:04.241Z,9.65
2023-05-13T08:21:32.007Z,12.95
2023-05-13T08:23:59.205Z,15.50
2023-05-13T08:26:26.936Z,7.80
2023-05-13T08:28:54.915Z,13.20
2023-05-13T08:31:24.390Z,8.32
2023-05-13T08:33:53.326Z,9.25
2023-05-13T08:36:22.016Z,16.70
2023-05-13T08:38:49.116Z,11.02
2023-05-13T08:41:16.667Z,16.33
2023-05-13T08:43:44.831Z,7.80
2023-05-13T08:46:12.619Z,5.20
2023-05-13T08:48:41.562Z,15.50
2023-05-13T08:51:09.657Z,16.00
2023-05-13T08:53:39.508Z,11.23
2023-05-13T08:56:08.484Z,8.30
2023-05-13T08:58:35.786Z,17.60
2023-05-13T09:01:04.193Z,16.90
2023-05-13T09:03:32.118Z,10.93
2023-05-13T09:06:03.075Z,13.68
2023-05-13T09:08:30.440Z,11.20
2023-05-13T09:10:58.126Z,16.58
2023-05-13T09:13:25.152Z,11.48
2023-05-13T09:15:52.289Z,10.88
2023-05-13T09:18:19.630Z,12.60
2023-05-13T09:20:47.003Z,20.98
2023-05-13T09:23:14.324Z,9.93
2023-05-13T09:25:41.617Z,11.70
2023-05-13T09:28:09.004Z,11.27
2023-05-13T09:30:43.792Z,7.47
2023-05-13T09:33:20.101Z,10.75
2023-05-13T09:35:53.073Z,10.20
2023-05-13T09:38:22.433Z,12.00
2023-05-13T09:41:03.399Z,9.13
2023-05-13T09:43:34.201Z,9.40
2023-05-13T09:46:03.651Z,17.75
2023-05-13T09:48:33.362Z,10.73
2023-05-13T09:51:01.094Z,7.93
2023-05-13T09:53:29.058Z,16.80
2023-05-13T09:55:57.774Z,10.63
2023-05-13T09:58:31.032Z,14.70
2023-05-13T10:00:58.865Z,3.88
2023-05-13T10:03:28.658Z,10.52
2023-05-13T10:05:59.035Z,6.68
2023-05-13T10:08:28.352Z,13.52
2023-05-13T10:10:58.045Z,8.00
2023-05-13T10:13:31.740Z,6.50
2023-05-13T10:15:59.851Z,9.52
2023-05-13T10:18:29.108Z,9.32
2023-05-13T10:20:57.100Z,6.00
2023-05-13T10:23:24.749Z,9.77
2023-05-13T10:25:54.504Z,6.07
2023-05-13T10:28:22.483Z,11.15
2023-05-13T10:30:52.822Z,10.27
2023-05-13T10:33:20.703Z,5.82
2023-05-13T10:36:11.531Z,6.47
2023-05-13T10:39:00.906Z,11.32
2023-05-13T10:42:06.325Z,11.02
2023-05-13T10:44:33.930Z,7.70
2023-05-13T10:47:02.262Z,7.25
2023-05-13T10:49:36.478Z,9.60
2023-05-13T10:52:11.603Z,12.98
2023-05-13T10:54:42.247Z,6.10
2023-05-13T10:57:10.552Z,4.45
2023-05-13T10:59:39.009Z,4.22
2023-05-13T11:02:25.235Z,8.25
2023-05-13T11:05:01.683Z,10.20
2023-05-13T11:07:31.135Z,12.60
2023-05-13T11:09:59.797Z,4.95
2023-05-13T11:12:26.751Z,8.85
2023-05-13T11:14:56.612Z,5.68
2023-05-13T11:17:26.941Z,5.07
2023-05-13T11:19:54.135Z,7.47
2023-05-13T11:22:26.507Z,4.88
2023-05-13T11:25:06.991Z,6.50
2023-05-13T11:27:39.935Z,7.35
2023-05-13T11:30:09.082Z,5.13
2023-05-13T11:32:51.568Z,6.22
2023-05-13T11:35:27.025Z,7.25
2023-05-13T11:37:59.849Z,5.05
2023-05-13T11:40:29.508Z,10.10
2023-05-13T11:42:58.048Z,9.50
2023-05-13T11:45:26.190Z,4.05
2023-05-13T11:47:54.195Z,4.95
2023-05-13T11:50:28.168Z,7.25
2023-05-13T11:52:57.973Z,11.27
2023-05-13T11:55:32.658Z,8.18
2023-05-13T11:58:00.354Z,14.20
2023-05-13T12:00:29.385Z,12.80
2023-05-13T12:02:57.505Z,12.57
2023-05-13T12:05:26.696Z,15.20
2023-05-13T12:07:58.612Z,13.40
2023-05-13T12:10:26.499Z,15.52
2023-05-13T12:12:54.125Z,10.45
2023-05-13T12:15:22.728Z,5.13
2023-05-13T12:17:50.347Z,11.80
2023-05-13T12:20:25.117Z,10.90
2023-05-13T12:22:54.596Z,8.93
2023-05-13T12:25:42.847Z,13.88
2023-05-13T12:28:13.410Z,10.82
2023-05-13T12:30:43.013Z,10.30
2023-05-13T12:33:43.643Z,11.77
2023-05-13T12:36:21.882Z,10.20
2023-05-13T12:39:00.913Z,5.35
2023-05-13T12:41:32.218Z,14.18
2023-05-13T12:44:01.326Z,9.57
2023-05-13T12:46:29.035Z,9.13
2023-05-13T12:49:00.774Z,6.30
2023-05-13T12:51:29.862Z,12.30
2023-05-13T12:53:57.974Z,4.95
2023-05-13T12:56:26.120Z,8.15
2023-05-13T12:58:54.342Z,10.80
2023-05-13T13:01:21.804Z,8.02
2023-05-13T13:03:49.361Z,10.00
2023-05-13T13:06:18.532Z,7.50
2023-05-13T13:08:45.889Z,8.60
2023-05-13T13:11:19.048Z,9.13
2023-05-13T13:13:46.742Z,10.07
2023-05-13T13:16:14.385Z,5.85
2023-05-13T13:18:42.480Z,8.18
2023-05-13T13:21:10.667Z,7.93
2023-05-13T13:23:37.881Z,6.63
2023-05-13T13:26:04.996Z,6.47
2023-05-13T13:28:32.054Z,7.20
2023-05-13T13:31:00.224Z,8.82
2023-05-13T13:33:27.721Z,9.95
2023-05-13T13:35:54.759Z,11.35
2023-05-13T13:38:21.858Z,10.88
2023-05-13T13:40:48.899Z,12.70
2023-05-13T13:43:16.063Z,14.07
2023-05-13T13:45:43.233Z,15.23
2023-05-13T13:48:10.571Z,12.07
2023-05-13T13:50:37.650Z,5.55
2023-05-13T13:53:04.671Z,13.68
2023-05-13T13:55:31.599Z,4.95
2023-05-13T13:58:01.459Z,9.32
2023-05-13T14:00:29.894Z,8.48
2023-05-13T14:02:57.017Z,10.25
2023-05-13T14:05:24.165Z,7.25
2023-05-13T14:07:54.138Z,10.57
2023-05-13T14:10:21.565Z,13.77
2023-05-13T14:12:48.805Z,9.05
2023-05-13T14:15:15.856Z,6.40
2023-05-13T14:17:43.568Z,4.40
2023-05-13T14:20:12.240Z,14.95
2023-05-13T14:22:39.272Z,9.38
2023-05-13T14:25:06.763Z,8.93
2023-05-13T14:27:36.481Z,10.98
2023-05-13T14:30:05.503Z,9.15
2023-05-13T14:32:34.300Z,13.73
2023-05-13T14:35:01.662Z,9.13
2023-05-13T14:37:29.390Z,8.93
2023-05-13T14:39:56.451Z,8.93
2023-05-13T14:42:23.454Z,12.20
2023-05-13T14:44:50.419Z,9.10
2023-05-13T14:47:17.464Z,10.50
2023-05-13T14:49:44.504Z,12.38
2023-05-13T14:52:11.431Z,13.25
2023-05-13T14:54:38.498Z,9.07
2023-05-13T14:57:06.948Z,11.63
2023-05-13T14:59:34.508Z,7.80
2023-05-13T15:02:02.814Z,12.27
2023-05-13T15:04:30.372Z,16.85
2023-05-13T15:06:58.305Z,9.98
2023-05-13T15:09:25.420Z,7.93
2023-05-13T15:11:52.393Z,4.65
2023-05-13T15:14:21.064Z,6.90
2023-05-13T15:16:48.130Z,14.98
2023-05-13T15:19:15.086Z,6.60
2023-05-13T15:21:42.228Z,7.32
2023-05-13T15:24:09.264Z,9.63
2023-05-13T15:26:36.433Z,20.23
2023-05-13T15:29:03.610Z,10.90
2023-05-13T15:31:31.936Z,10.55
2023-05-13T15:33:59.691Z,9.93
2023-05-13T15:36:26.759Z,11.02
2023-05-13T15:38:53.977Z,5.90
2023-05-13T15:41:20.952Z,10.38
2023-05-13T15:43:47.989Z,10.48
2023-05-13T15:46:15.233Z,8.70
2023-05-13T15:48:42.277Z,18.52
2023-05-13T15:51:09.259Z,14.68
2023-05-13T15:53:36.314Z,9.75
2023-05-13T15:56:03.502Z,11.23
2023-05-13T15:58:30.657Z,13.98
2023-05-13T16:00:58.504Z,12.88
2023-05-13T16:03:25.475Z,12.60
2023-05-13T16:05:53.068Z,27.63
2023-05-13T16:08:20.219Z,14.98
2023-05-13T16:10:47.451Z,12.48
2023-05-13T16:13:14.564Z,9.38
2023-05-13T16:15:41.685Z,21.05
2023-05-13T16:18:08.835Z,16.52
2023-05-13T16:20:35.903Z,10.20
2023-05-13T16:23:02.956Z,18.33
2023-05-13T16:25:29.949Z,10.40
2023-05-13T16:27:57.064Z,15.73
2023-05-13T16:30:24.491Z,16.33
2023-05-13T16:32:54.361Z,24.85
2023-05-13T16:35:22.221Z,13.23
2023-05-13T16:37:49.862Z,9.40
2023-05-13T16:40:17.050Z,15.93
2023-05-13T16:42:44.168Z,15.18
2023-05-13T16:45:11.350Z,14.13
2023-05-13T16:47:38.703Z,15.50
2023-05-13T16:50:08.661Z,13.35
2023-05-13T16:52:36.339Z,13.20
2023-05-13T16:55:12.728Z,25.92
2023-05-13T16:57:40.134Z,22.05
2023-05-13T17:00:10.790Z,15.35
2023-05-13T17:02:37.944Z,7.97
2023-05-13T17:05:05.348Z,16.20
2023-05-13T17:07:32.557Z,21.55
2023-05-13T17:09:59.624Z,11.18
2023-05-13T17:12:28.001Z,9.82
2023-05-13T17:14:55.941Z,16.25
2023-05-13T17:17:23.187Z,12.45
2023-05-13T17:19:50.240Z,19.98
2023-05-13T17:22:19.512Z,17.30
2023-05-13T17:24:46.542Z,19.80
2023-05-13T17:27:13.509Z,19.77
2023-05-13T17:29:43.488Z,18.88
2023-05-13T17:32:10.688Z,11.05
2023-05-13T17:34:37.736Z,15.65
2023-05-13T17:37:04.869Z,20.98
2023-05-13T17:39:32.060Z,20.75
2023-05-13T17:41:59.189Z,13.10
2023-05-13T17:44:26.260Z,12.88
2023-05-13T17:46:53.249Z,10.57
2023-05-13T17:49:20.514Z,15.07
2023-05-13T17:51:48.634Z,9.85
2023-05-13T17:54:15.627Z,17.88
2023-05-13T17:56:42.562Z,14.27
2023-05-13T17:59:09.525Z,8.20
2023-05-13T18:01:36.574Z,16.20
2023-05-13T18:04:03.611Z,18.33
2023-05-13T18:06:31.344Z,21.67
2023-05-13T18:08:59.193Z,21.83
2023-05-13T18:11:28.992Z,15.45
2023-05-13T18:13:56.012Z,19.02
2023-05-13T18:16:25.067Z,27.67
2023-05-13T18:18:52.255Z,14.98
2023-05-13T18:21:19.377Z,14.98
2023-05-13T18:23:46.708Z,9.93
2023-05-13T18:26:13.792Z,18.58
2023-05-13T18:28:42.555Z,12.15
2023-05-13T18:31:09.671Z,14.35
2023-05-13T18:33:38.600Z,11.32
2023-05-13T18:36:05.960Z,10.82
2023-05-13T18:38:32.922Z,10.55
2023-05-13T18:41:03.357Z,16.55
2023-05-13T18:43:31.140Z,22.88
2023-05-13T18:45:59.713Z,11.50
2023-05-13T18:48:27.368Z,20.10
2023-05-13T18:50:54.340Z,8.73
2023-05-13T18:53:21.491Z,24.27
2023-05-13T18:55:48.545Z,20.77
2023-05-13T18:58:15.736Z,21.38
2023-05-13T19:00:42.928Z,16.25
2023-05-13T19:03:10.026Z,12.15
2023-05-13T19:05:37.265Z,14.77
2023-05-13T19:08:05.468Z,25.40
2023-05-13T19:10:39.012Z,20.48
2023-05-13T19:13:07.378Z,20.65
2023-05-13T19:15:34.714Z,18.58
2023-05-13T19:18:02.257Z,18.45
2023-05-13T19:20:30.246Z,23.50
2023-05-13T19:22:57.528Z,18.92
2023-05-13T19:25:24.665Z,11.20
2023-05-13T19:27:51.746Z,13.65
2023-05-13T19:30:18.861Z,17.63
2023-05-13T19:32:45.875Z,13.82
2023-05-13T19:35:12.909Z,13.45
2023-05-13T19:37:39.892Z,11.05
2023-05-13T19:40:07.556Z,12.45
2023-05-13T19:42:34.811Z,11.15
2023-05-13T19:45:01.990Z,9.48
2023-05-13T19:47:33.767Z,6.43
2023-05-13T19:50:00.885Z,10.32
2023-05-13T19:52:27.818Z,5.55
2023-05-13T19:54:54.863Z,7.88
2023-05-13T19:57:22.111Z,7.43
2023-05-13T19:59:49.266Z,21.27
2023-05-13T20:02:16.965Z,9.82
2023-05-13T20:04:44.173Z,11.15
2023-05-13T20:07:11.361Z,7.65
2023-05-13T20:09:38.331Z,9.68
2023-05-13T20:12:05.684Z,16.88
2023-05-13T20:14:49.685Z,23.45
2023-05-13T20:17:21.231Z,11.52
2023-05-13T20:19:50.155Z,10.15
2023-05-13T20:22:18.679Z,10.65
2023-05-13T20:24:46.986Z,11.52
2023-05-13T20:27:16.136Z,17.63
2023-05-13T20:29:45.639Z,8.88
2023-05-13T20:32:13.899Z,10.60
2023-05-13T20:34:41.600Z,13.30
2023-05-13T20:37:08.639Z,7.70
2023-05-13T20:39:35.776Z,11.38
2023-05-13T20:42:02.826Z,7.25
2023-05-13T20:44:29.905Z,10.32
2023-05-13T20:46:57.056Z,7.18
2023-05-13T20:49:24.102Z,7.18
2023-05-13T20:51:51.155Z,5.82
2023-05-13T20:54:18.248Z,11.57
2023-05-13T20:56:45.246Z,8.32
2023-05-13T20:59:12.250Z,5.28
2023-05-13T21:01:39.397Z,8.75
2023-05-13T21:04:06.600Z,5.03
2023-05-13T21:06:33.722Z,3.53
2023-05-13T21:09:01.054Z,7.15
2023-05-13T21:11:28.138Z,4.25
2023-05-13T21:13:55.173Z,4.60
2023-05-13T21:16:22.610Z,6.55
2023-05-13T21:18:49.713Z,5.80
2023-05-13T21:21:16.820Z,5.47
2023-05-13T21:23:44.239Z,12.90
2023-05-13T21:26:11.992Z,4.60
2023-05-13T21:28:39.292Z,4.45
2023-05-13T21:31:06.360Z,3.88
2023-05-13T21:33:33.837Z,7.40
2023-05-13T21:36:00.760Z,5.82
2023-05-13T21:38:27.742Z,5.95
2023-05-13T21:40:54.948Z,7.75
2023-05-13T21:43:21.961Z,3.25
2023-05-13T21:45:49.377Z,3.83
2023-05-13T21:48:16.738Z,7.38
2023-05-13T21:50:43.819Z,9.52
2023-05-13T21:53:10.890Z,6.38
2023-05-13T21:55:37.878Z,4.70
2023-05-13T21:58:04.837Z,4.13
2023-05-13T22:00:32.050Z,6.72
2023-05-13T22:03:00.556Z,7.35
2023-05-13T22:05:28.271Z,3.15
2023-05-13T22:07:55.437Z,5.10
2023-05-13T22:10:22.785Z,4.93
2023-05-13T22:12:51.181Z,8.00
2023-05-13T22:15:18.183Z,8.00
2023-05-13T22:17:45.253Z,2.60
2023-05-13T22:20:12.740Z,7.85
2023-05-13T22:22:39.705Z,6.85
2023-05-13T22:25:07.053Z,8.43
2023-05-13T22:27:34.356Z,5.72
2023-05-13T22:30:01.345Z,5.68
2023-05-13T22:32:29.633Z,6.43
2023-05-13T22:34:56.662Z,8.70
2023-05-13T22:37:23.605Z,10.85
2023-05-13T22:39:51.136Z,4.00
2023-05-13T22:42:18.138Z,4.43
2023-05-13T22:44:45.176Z,7.32
2023-05-13T22:47:12.370Z,7.00
2023-05-13T22:49:39.430Z,2.58
2023-05-13T22:52:06.623Z,4.78
2023-05-13T22:54:33.572Z,4.30
2023-05-13T22:57:00.913Z,7.53
2023-05-13T22:59:27.944Z,5.90
2023-05-13T23:01:55.237Z,4.55
2023-05-13T23:04:22.388Z,3.38
2023-05-13T23:06:49.462Z,3.22
2023-05-13T23:09:16.470Z,5.22
2023-05-13T23:11:43.469Z,8.20
2023-05-13T23:14:10.604Z,8.85
2023-05-13T23:16:37.742Z,7.35
2023-05-13T23:19:04.925Z,5.20
2023-05-13T23:21:32.592Z,3.75
2023-05-13T23:23:59.582Z,5.40
2023-05-13T23:26:26.674Z,6.97
2023-05-13T23:28:53.626Z,8.40
2023-05-13T23:31:20.859Z,3.20
2023-05-13T23:33:48.083Z,5.30
2023-05-13T23:36:16.209Z,12.93
2023-05-13T23:38:43.164Z,2.67
2023-05-13T23:41:10.269Z,3.85
2023-05-13T23:43:37.326Z,7.35
2023-05-13T23:46:04.444Z,5.40
2023-05-13T23:48:32.000Z,7.72
2023-05-13T23:50:59.219Z,5.70
2023-05-13T23:53:26.618Z,2.78
2023-05-13T23:55:53.621Z,8.18
2023-05-13T23:58:20.806Z,3.20
